SBMO/MCZ METAR and TAF weather

Enter ICAO airport designator
Station Type Date Time Source
SBMO METAR 2021/08/04 18:00 UTC NOAA

SBMO 041800Z 16011KT 9999 SCT033 BKN070 25/20 Q1018


Station Type Date Time Source
SBMO Decoded METAR 2021/08/04 18:00 UTC NOAA

Maceio Aeroporto , Brazil (SBMO) 09-31S 035-47W 115M
Aug 04, 2021 - 02:00 PM EDT / 2021.08.04 1800 UTC
Wind: from the SSE (160 degrees) at 13 MPH (11 KT):0
Visibility: greater than 7 mile(s):0
Sky conditions: mostly cloudy
Temperature: 77 F (25 C)
Dew Point: 68 F (20 C)
Relative Humidity: 73%
Pressure (altimeter): 30.06 in. Hg (1018 hPa)
ob: SBMO 041800Z 16011KT 9999 SCT033 BKN070 25/20 Q1018
cycle: 18

Station Type Date Time Source
SBMO TAF 2021/08/04 18:57 UTC NOAA

TAF TAF SBMO 041555Z 0418/0518 18010KT 7000 BKN020 TN21/0508Z TX25/0518Z
BECMG 0418/0421 22006KT 4000 BR BKN015
BECMG 0421/0424 24006KT 7000 NSW BKN017
BECMG 0506/0508 18005KT
BECMG 0510/0512 16006KT
RMK PGW

Example: see airport list